createdAt,value
2023-02-11T00:00:45.541Z,51.323380
2023-02-11T00:01:45.556Z,51.323383
2023-02-11T00:02:47.816Z,51.323418
2023-02-11T00:03:46.582Z,51.323433
2023-02-11T00:04:45.469Z,51.323433
2023-02-11T00:05:45.450Z,51.323437
2023-02-11T00:06:45.460Z,51.323421
2023-02-11T00:07:45.415Z,51.323448
2023-02-11T00:08:45.400Z,51.323452
2023-02-11T00:09:45.381Z,51.323456
2023-02-11T00:10:45.359Z,51.323429
2023-02-11T00:11:45.372Z,51.323387
2023-02-11T00:12:45.326Z,51.323433
2023-02-11T00:13:45.310Z,51.323441
2023-02-11T00:14:45.288Z,51.323444
2023-02-11T00:15:45.280Z,51.323429
2023-02-11T00:16:45.334Z,51.323429
2023-02-11T00:17:45.242Z,51.323425
2023-02-11T00:18:45.218Z,51.323425
2023-02-11T00:19:45.199Z,51.323444
2023-02-11T00:20:45.183Z,51.323521
2023-02-11T00:21:45.197Z,51.323498
2023-02-11T00:22:45.149Z,51.323463
2023-02-11T00:23:45.133Z,51.323460
2023-02-11T00:24:45.117Z,51.323456
2023-02-11T00:25:45.101Z,51.323441
2023-02-11T00:26:45.108Z,51.323444
2023-02-11T00:27:45.060Z,51.323460
2023-02-11T00:28:45.043Z,51.323433
2023-02-11T00:29:45.019Z,51.323483
2023-02-11T00:30:45.128Z,51.323437
2023-02-11T00:31:45.257Z,51.323414
2023-02-11T00:32:44.969Z,51.323406
2023-02-11T00:33:44.946Z,51.323460
2023-02-11T00:34:44.929Z,51.323475
2023-02-11T00:35:44.908Z,51.323467
2023-02-11T00:36:44.918Z,51.323444
2023-02-11T00:37:44.871Z,51.323418
2023-02-11T00:38:44.858Z,51.323425
2023-02-11T00:39:44.837Z,51.323414
2023-02-11T00:40:44.817Z,51.323444
2023-02-11T00:41:44.844Z,51.323444
2023-02-11T00:42:44.784Z,51.323421
2023-02-11T00:43:44.763Z,51.323444
2023-02-11T00:44:44.746Z,51.323433
2023-02-11T00:45:44.848Z,51.323425
2023-02-11T00:46:44.853Z,51.323448
2023-02-11T00:47:44.690Z,51.323437
2023-02-11T00:48:44.696Z,51.323463
2023-02-11T00:49:44.654Z,51.323433
2023-02-11T00:50:44.634Z,51.323444
2023-02-11T00:51:44.645Z,51.323460
2023-02-11T00:52:44.593Z,51.323383
2023-02-11T00:53:44.580Z,51.323360
2023-02-11T00:54:44.560Z,51.323395
2023-02-11T00:55:44.540Z,51.323425
2023-02-11T00:56:44.551Z,51.323429
2023-02-11T00:57:44.505Z,51.323471
2023-02-11T00:58:44.483Z,51.323486
2023-02-11T00:59:44.471Z,51.323456
2023-02-11T01:00:44.449Z,51.323448
2023-02-11T01:01:44.570Z,51.323433
2023-02-11T01:02:44.430Z,51.323421
2023-02-11T01:03:44.400Z,51.323444
2023-02-11T01:04:44.377Z,51.323433
2023-02-11T01:05:44.363Z,51.323425
2023-02-11T01:06:44.377Z,51.323429
2023-02-11T01:07:44.331Z,51.323429
2023-02-11T01:08:44.311Z,51.323418
2023-02-11T01:09:44.293Z,51.323402
2023-02-11T01:10:44.278Z,51.323444
2023-02-11T01:11:44.286Z,51.323444
2023-02-11T01:12:44.243Z,51.323418
2023-02-11T01:13:44.220Z,51.323456
2023-02-11T01:14:44.204Z,51.323433
2023-02-11T01:15:44.222Z,51.323418
2023-02-11T01:16:44.195Z,51.323418
2023-02-11T01:17:44.151Z,51.323418
2023-02-11T01:18:44.157Z,51.323360
2023-02-11T01:19:44.163Z,51.323395
2023-02-11T01:20:44.099Z,51.323402
2023-02-11T01:21:44.107Z,51.323380
2023-02-11T01:22:44.053Z,51.323418
2023-02-11T01:23:45.054Z,51.323479
2023-02-11T01:24:44.026Z,51.323418
2023-02-11T01:25:44.019Z,51.323406
2023-02-11T01:26:44.021Z,51.323414
2023-02-11T01:27:43.969Z,51.323444
2023-02-11T01:28:43.952Z,51.323460
2023-02-11T01:29:43.942Z,51.323387
2023-02-11T01:30:43.975Z,51.323421
2023-02-11T01:31:43.946Z,51.323421
2023-02-11T01:32:43.883Z,51.323414
2023-02-11T01:33:43.862Z,51.323414
2023-02-11T01:34:43.848Z,51.323448
2023-02-11T01:35:43.828Z,51.323429
2023-02-11T01:36:43.843Z,51.323391
2023-02-11T01:37:43.793Z,51.323418
2023-02-11T01:38:43.773Z,51.323429
2023-02-11T01:39:43.766Z,51.323460
2023-02-11T01:40:43.739Z,51.323505
2023-02-11T01:41:43.751Z,51.323441
2023-02-11T01:42:43.698Z,51.323441
2023-02-11T01:43:43.686Z,51.323460
2023-02-11T01:44:43.664Z,51.323448
2023-02-11T01:45:43.646Z,51.323410
2023-02-11T01:46:43.696Z,51.323437
2023-02-11T01:47:43.618Z,51.323452
2023-02-11T01:48:43.592Z,51.323437
2023-02-11T01:49:43.566Z,51.323441
2023-02-11T01:50:44.557Z,51.323395
2023-02-11T01:51:43.573Z,51.323437
2023-02-11T01:52:43.526Z,51.323460
2023-02-11T01:53:43.510Z,51.323425
2023-02-11T01:54:43.485Z,51.323433
2023-02-11T01:55:43.473Z,51.323399
2023-02-11T01:56:43.481Z,51.323421
2023-02-11T01:57:43.426Z,51.323421
2023-02-11T01:58:43.413Z,51.323444
2023-02-11T01:59:43.420Z,51.323456
2023-02-11T02:00:43.376Z,51.323448
2023-02-11T02:01:43.463Z,51.323437
2023-02-11T02:02:43.337Z,51.323387
2023-02-11T02:03:43.361Z,51.323421
2023-02-11T02:04:43.325Z,51.323448
2023-02-11T02:05:43.276Z,51.323456
2023-02-11T02:06:44.291Z,51.323441
2023-02-11T02:07:43.244Z,51.323444
2023-02-11T02:08:43.229Z,51.323441
2023-02-11T02:09:43.205Z,51.323433
2023-02-11T02:10:43.186Z,51.323448
2023-02-11T02:11:43.211Z,51.323467
2023-02-11T02:12:43.153Z,51.323452
2023-02-11T02:13:43.149Z,51.323463
2023-02-11T02:14:43.147Z,51.323406
2023-02-11T02:15:43.118Z,51.323421
2023-02-11T02:16:43.160Z,51.323433
2023-02-11T02:17:43.091Z,51.323471
2023-02-11T02:18:43.037Z,51.323479
2023-02-11T02:19:43.020Z,51.323441
2023-02-11T02:20:43.002Z,51.323444
2023-02-11T02:21:42.990Z,51.323402
2023-02-11T02:22:43.005Z,51.323410
2023-02-11T02:23:42.948Z,51.323448
2023-02-11T02:24:42.930Z,51.323395
2023-02-11T02:25:42.943Z,51.323406
2023-02-11T02:26:42.893Z,51.323467
2023-02-11T02:27:42.908Z,51.323414
2023-02-11T02:28:42.858Z,51.323414
2023-02-11T02:29:42.837Z,51.323452
2023-02-11T02:30:42.846Z,51.323448
2023-02-11T02:31:42.838Z,51.323414
2023-02-11T02:32:42.810Z,51.323414
2023-02-11T02:33:42.772Z,51.323425
2023-02-11T02:34:42.745Z,51.323433
2023-02-11T02:35:42.726Z,51.323421
2023-02-11T02:36:42.713Z,51.323429
2023-02-11T02:37:42.723Z,51.323425
2023-02-11T02:38:42.672Z,51.323418
2023-02-11T02:39:42.653Z,51.323418
2023-02-11T02:40:42.629Z,51.323425
2023-02-11T02:41:42.612Z,51.323395
2023-02-11T02:42:42.625Z,51.323387
2023-02-11T02:43:42.578Z,51.323395
2023-02-11T02:44:42.563Z,51.323437
2023-02-11T02:45:42.571Z,51.323406
2023-02-11T02:46:42.584Z,51.323395
2023-02-11T02:47:42.506Z,51.323421
2023-02-11T02:48:42.486Z,51.323418
2023-02-11T02:49:42.469Z,51.323414
2023-02-11T02:50:42.493Z,51.323391
2023-02-11T02:51:42.435Z,51.323406
2023-02-11T02:52:42.427Z,51.323402
2023-02-11T02:53:42.398Z,51.323391
2023-02-11T02:54:42.373Z,51.323410
2023-02-11T02:55:42.387Z,51.323399
2023-02-11T02:56:42.347Z,51.323380
2023-02-11T02:57:42.349Z,51.323383
2023-02-11T02:58:42.304Z,51.323345
2023-02-11T02:59:42.293Z,51.323410
2023-02-11T03:00:42.343Z,51.323395
2023-02-11T03:01:42.251Z,51.323410
2023-02-11T03:02:42.274Z,51.323410
2023-02-11T03:03:42.242Z,51.323410
2023-02-11T03:04:42.207Z,51.323399
2023-02-11T03:05:42.178Z,51.323418
2023-02-11T03:06:42.159Z,51.323429
2023-02-11T03:07:42.175Z,51.323425
2023-02-11T03:08:42.129Z,51.323444
2023-02-11T03:09:42.108Z,51.323421
2023-02-11T03:10:42.089Z,51.323402
2023-02-11T03:11:42.114Z,51.323372
2023-02-11T03:12:42.046Z,51.323387
2023-02-11T03:13:42.036Z,51.323383
2023-02-11T03:14:42.009Z,51.323387
2023-02-11T03:15:43.000Z,51.323437
2023-02-11T03:16:42.047Z,51.323414
2023-02-11T03:17:41.988Z,51.323425
2023-02-11T03:18:41.937Z,51.323410
2023-02-11T03:19:42.926Z,51.323441
2023-02-11T03:20:41.914Z,51.323414
2023-02-11T03:21:41.893Z,51.323418
2023-02-11T03:22:41.953Z,51.323410
2023-02-11T03:23:41.863Z,51.323421
2023-02-11T03:24:41.835Z,51.323433
2023-02-11T03:25:41.811Z,51.323425
2023-02-11T03:26:41.799Z,51.323418
2023-02-11T03:27:41.814Z,51.323421
2023-02-11T03:28:41.760Z,51.323395
2023-02-11T03:29:41.741Z,51.323391
2023-02-11T03:30:41.751Z,51.323376
2023-02-11T03:31:41.789Z,51.323391
2023-02-11T03:32:41.711Z,51.323406
2023-02-11T03:33:41.667Z,51.323429
2023-02-11T03:34:41.656Z,51.323414
2023-02-11T03:35:41.629Z,51.323414
2023-02-11T03:36:41.610Z,51.323421
2023-02-11T03:37:41.625Z,51.323414
2023-02-11T03:38:41.575Z,51.323414
2023-02-11T03:39:41.568Z,51.323437
2023-02-11T03:40:41.538Z,51.323441
2023-02-11T03:41:41.515Z,51.323421
2023-02-11T03:42:42.542Z,51.323429
2023-02-11T03:43:41.488Z,51.323406
2023-02-11T03:44:41.465Z,51.323387
2023-02-11T03:45:41.504Z,51.323418
2023-02-11T03:46:41.432Z,51.323406
2023-02-11T03:47:41.443Z,51.323425
2023-02-11T03:48:41.392Z,51.323410
2023-02-11T03:49:41.375Z,51.323425
2023-02-11T03:50:41.356Z,51.323421
2023-02-11T03:51:41.334Z,51.323418
2023-02-11T03:52:41.343Z,51.323364
2023-02-11T03:53:41.296Z,51.323391
2023-02-11T03:54:41.278Z,51.323414
2023-02-11T03:55:41.260Z,51.323433
2023-02-11T03:56:41.241Z,51.323406
2023-02-11T03:57:41.250Z,51.323410
2023-02-11T03:58:41.295Z,51.323425
2023-02-11T03:59:41.182Z,51.323395
2023-02-11T04:00:41.204Z,51.323380
2023-02-11T04:01:41.147Z,51.323376
2023-02-11T04:02:41.161Z,51.323410
2023-02-11T04:03:41.112Z,51.323414
2023-02-11T04:04:41.092Z,51.323425
2023-02-11T04:05:41.075Z,51.323425
2023-02-11T04:06:41.059Z,51.323418
2023-02-11T04:07:41.070Z,51.323383
2023-02-11T04:08:41.018Z,51.323395
2023-02-11T04:09:41.000Z,51.323410
2023-02-11T04:10:40.987Z,51.323406
2023-02-11T04:11:40.966Z,51.323402
2023-02-11T04:12:40.980Z,51.323406
2023-02-11T04:13:40.930Z,51.323395
2023-02-11T04:14:40.912Z,51.323364
2023-02-11T04:15:40.893Z,51.323391
2023-02-11T04:16:40.943Z,51.323406
2023-02-11T04:17:40.886Z,51.323414
2023-02-11T04:18:40.849Z,51.323414
2023-02-11T04:19:40.831Z,51.323406
2023-02-11T04:20:40.797Z,51.323383
2023-02-11T04:21:40.778Z,51.323406
2023-02-11T04:22:40.802Z,51.323380
2023-02-11T04:23:40.741Z,51.323395
2023-02-11T04:24:40.724Z,51.323418
2023-02-11T04:25:40.705Z,51.323524
2023-02-11T04:26:40.691Z,51.323498
2023-02-11T04:27:40.701Z,51.323429
2023-02-11T04:28:40.646Z,51.323364
2023-02-11T04:29:40.635Z,51.323380
2023-02-11T04:30:40.653Z,51.323402
2023-02-11T04:31:40.637Z,51.323399
2023-02-11T04:32:40.608Z,51.323410
2023-02-11T04:33:40.556Z,51.323414
2023-02-11T04:34:40.545Z,51.323418
2023-02-11T04:35:40.514Z,51.323410
2023-02-11T04:36:40.499Z,51.323383
2023-02-11T04:37:40.514Z,51.323368
2023-02-11T04:38:40.461Z,51.323395
2023-02-11T04:39:40.442Z,51.323402
2023-02-11T04:40:40.424Z,51.323395
2023-02-11T04:41:40.405Z,51.323406
2023-02-11T04:42:40.423Z,51.323406
2023-02-11T04:43:40.364Z,51.323399
2023-02-11T04:44:40.346Z,51.323414
2023-02-11T04:45:40.393Z,51.323391
2023-02-11T04:46:40.311Z,51.323410
2023-02-11T04:47:40.322Z,51.323402
2023-02-11T04:48:40.269Z,51.323372
2023-02-11T04:49:40.255Z,51.323368
2023-02-11T04:50:40.240Z,51.323421
2023-02-11T04:51:40.214Z,51.323406
2023-02-11T04:52:40.227Z,51.323387
2023-02-11T04:53:40.185Z,51.323410
2023-02-11T04:54:40.160Z,51.323402
2023-02-11T04:55:40.145Z,51.323406
2023-02-11T04:56:40.121Z,51.323421
2023-02-11T04:57:40.134Z,51.323414
2023-02-11T04:58:40.086Z,51.323395
2023-02-11T04:59:40.066Z,51.323364
2023-02-11T05:00:40.046Z,51.323399
2023-02-11T05:01:40.111Z,51.323399
2023-02-11T05:02:40.044Z,51.323387
2023-02-11T05:03:39.992Z,51.323402
2023-02-11T05:04:39.975Z,51.323372
2023-02-11T05:05:39.955Z,51.323376
2023-02-11T05:06:39.938Z,51.323399
2023-02-11T05:07:39.953Z,51.323353
2023-02-11T05:08:39.895Z,51.323387
2023-02-11T05:09:39.883Z,51.323402
2023-02-11T05:10:39.860Z,51.323380
2023-02-11T05:11:39.848Z,51.323338
2023-02-11T05:12:39.859Z,51.323391
2023-02-11T05:13:39.804Z,51.323383
2023-02-11T05:14:39.788Z,51.323353
2023-02-11T05:15:39.769Z,51.323345
2023-02-11T05:16:39.821Z,51.323360
2023-02-11T05:17:39.762Z,51.323395
2023-02-11T05:18:39.713Z,51.323391
2023-02-11T05:19:39.704Z,51.323402
2023-02-11T05:20:39.674Z,51.323395
2023-02-11T05:21:42.343Z,51.323444
2023-02-11T05:22:40.665Z,51.323456
2023-02-11T05:23:39.623Z,51.323418
2023-02-11T05:24:39.611Z,51.323429
2023-02-11T05:25:39.579Z,51.323421
2023-02-11T05:26:39.567Z,51.323414
2023-02-11T05:27:39.573Z,51.323391
2023-02-11T05:28:39.532Z,51.323383
2023-02-11T05:29:39.505Z,51.323414
2023-02-11T05:30:39.530Z,51.323410
2023-02-11T05:31:39.486Z,51.323402
2023-02-11T05:32:39.490Z,51.323357
2023-02-11T05:33:39.433Z,51.323402
2023-02-11T05:34:39.416Z,51.323418
2023-02-11T05:35:39.396Z,51.323399
2023-02-11T05:36:39.379Z,51.323444
2023-02-11T05:37:39.423Z,51.323437
2023-02-11T05:38:39.338Z,51.323463
2023-02-11T05:39:39.319Z,51.323425
2023-02-11T05:40:39.298Z,51.323307
2023-02-11T05:41:39.281Z,51.323341
2023-02-11T05:42:39.292Z,51.323353
2023-02-11T05:43:39.278Z,51.323338
2023-02-11T05:44:39.230Z,51.323341
2023-02-11T05:45:39.204Z,51.323357
2023-02-11T05:46:39.207Z,51.323376
2023-02-11T05:47:39.169Z,51.323467
2023-02-11T05:48:39.186Z,51.323463
2023-02-11T05:49:39.134Z,51.323410
2023-02-11T05:50:39.122Z,51.323399
2023-02-11T05:51:39.098Z,51.323448
2023-02-11T05:52:39.136Z,51.323586
2023-02-11T05:53:39.084Z,51.323582
2023-02-11T05:54:39.038Z,51.323582
2023-02-11T05:55:39.021Z,51.323654
2023-02-11T05:56:38.999Z,51.323589
2023-02-11T05:57:38.980Z,51.323502
2023-02-11T05:58:38.981Z,51.323452
2023-02-11T05:59:39.953Z,51.323494
2023-02-11T06:00:38.928Z,51.323433
2023-02-11T06:01:38.911Z,51.323418
2023-02-11T06:02:38.935Z,51.323421
2023-02-11T06:03:38.968Z,51.323471
2023-02-11T06:04:38.848Z,51.323475
2023-02-11T06:05:38.832Z,51.323460
2023-02-11T06:06:38.812Z,51.323418
2023-02-11T06:07:38.793Z,51.323414
2023-02-11T06:08:39.451Z,51.323467
2023-02-11T06:09:39.752Z,51.323425
2023-02-11T06:10:38.734Z,51.323517
2023-02-11T06:11:38.714Z,51.323437
2023-02-11T06:12:38.694Z,51.323441
2023-02-11T06:13:38.704Z,51.323421
2023-02-11T06:14:38.660Z,51.323402
2023-02-11T06:15:38.667Z,51.323383
2023-02-11T06:16:38.629Z,51.323429
2023-02-11T06:17:38.607Z,51.323421
2023-02-11T06:18:38.614Z,51.323410
2023-02-11T06:19:38.566Z,51.323448
2023-02-11T06:20:38.549Z,51.323437
2023-02-11T06:21:44.225Z,51.323421
2023-02-11T06:22:40.513Z,51.323418
2023-02-11T06:23:38.527Z,51.323414
2023-02-11T06:24:59.918Z,51.323421
2023-02-11T06:25:40.462Z,51.323448
2023-02-11T06:26:38.444Z,51.323441
2023-02-11T06:27:38.437Z,51.323421
2023-02-11T06:28:41.674Z,51.323433
2023-02-11T06:29:39.385Z,51.323429
2023-02-11T06:30:38.366Z,51.323456
2023-02-11T06:31:38.527Z,51.323444
2023-02-11T06:32:46.155Z,51.323452
2023-02-11T06:33:40.349Z,51.323463
2023-02-11T06:34:38.291Z,51.323437
2023-02-11T06:35:38.277Z,51.323444
2023-02-11T06:36:38.260Z,51.323456
2023-02-11T06:37:38.244Z,51.323456
2023-02-11T06:38:38.249Z,51.323463
2023-02-11T06:39:38.202Z,51.323467
2023-02-11T06:40:38.295Z,51.323448
2023-02-11T06:41:38.174Z,51.323486
2023-02-11T06:42:38.148Z,51.323456
2023-02-11T06:43:38.163Z,51.323463
2023-02-11T06:44:38.113Z,51.323467
2023-02-11T06:45:38.085Z,51.323463
2023-02-11T06:46:38.159Z,51.323456
2023-02-11T06:47:38.064Z,51.323456
2023-02-11T06:48:38.068Z,51.323448
2023-02-11T06:49:38.018Z,51.323444
2023-02-11T06:50:38.000Z,51.323437
2023-02-11T06:51:37.969Z,51.323471
2023-02-11T06:52:38.965Z,51.323475
2023-02-11T06:53:37.972Z,51.323425
2023-02-11T06:54:37.921Z,51.323429
2023-02-11T06:55:37.905Z,51.323456
2023-02-11T06:56:37.880Z,51.323460
2023-02-11T06:57:37.866Z,51.323471
2023-02-11T06:58:37.874Z,51.323490
2023-02-11T06:59:37.826Z,51.323490
2023-02-11T07:00:37.812Z,51.323490
2023-02-11T07:01:37.851Z,51.323475
2023-02-11T07:02:37.818Z,51.323463
2023-02-11T07:03:37.781Z,51.323490
2023-02-11T07:04:37.729Z,51.323475
2023-02-11T07:05:37.714Z,51.323479
2023-02-11T07:06:37.699Z,51.323486
2023-02-11T07:07:37.697Z,51.323475
2023-02-11T07:08:37.691Z,51.323483
2023-02-11T07:09:37.676Z,51.323486
2023-02-11T07:10:37.619Z,51.323498
2023-02-11T07:11:37.602Z,51.323513
2023-02-11T07:12:37.587Z,51.323490
2023-02-11T07:13:37.564Z,51.323505
2023-02-11T07:14:37.581Z,51.323505
2023-02-11T07:15:37.536Z,51.323490
2023-02-11T07:16:37.575Z,51.323502
2023-02-11T07:17:37.501Z,51.323494
2023-02-11T07:18:37.468Z,51.323498
2023-02-11T07:19:38.486Z,51.323505
2023-02-11T07:20:37.439Z,51.323460
2023-02-11T07:21:37.424Z,51.323471
2023-02-11T07:22:37.404Z,51.323483
2023-02-11T07:23:37.410Z,51.323494
2023-02-11T07:24:37.362Z,51.323502
2023-02-11T07:25:37.347Z,51.323505
2023-02-11T07:26:37.321Z,51.323494
2023-02-11T07:27:37.302Z,51.323486
2023-02-11T07:28:37.390Z,51.323460
2023-02-11T07:29:37.263Z,51.323460
2023-02-11T07:30:37.242Z,51.323463
2023-02-11T07:31:37.316Z,51.323475
2023-02-11T07:32:37.205Z,51.323460
2023-02-11T07:33:37.238Z,51.323475
2023-02-11T07:34:37.189Z,51.323483
2023-02-11T07:35:37.154Z,51.323486
2023-02-11T07:36:37.135Z,51.323475
2023-02-11T07:37:37.116Z,51.323475
2023-02-11T07:38:37.124Z,51.323475
2023-02-11T07:39:37.076Z,51.323486
2023-02-11T07:40:37.059Z,51.323490
2023-02-11T07:41:38.093Z,51.323502
2023-02-11T07:42:38.023Z,51.323494
2023-02-11T07:43:37.041Z,51.323448
2023-02-11T07:44:36.989Z,51.323471
2023-02-11T07:45:36.965Z,51.323486
2023-02-11T07:46:37.024Z,51.323475
2023-02-11T07:47:36.929Z,51.323425
2023-02-11T07:48:36.942Z,51.323418
2023-02-11T07:49:36.904Z,51.323380
2023-02-11T07:50:36.877Z,51.323425
2023-02-11T07:51:36.856Z,51.323441
2023-02-11T07:52:36.837Z,51.323441
2023-02-11T07:53:36.850Z,51.323452
2023-02-11T07:54:36.824Z,51.323433
2023-02-11T07:55:36.778Z,51.323425
2023-02-11T07:56:36.761Z,51.323467
2023-02-11T07:57:36.742Z,51.323521
2023-02-11T07:58:36.764Z,51.323448
2023-02-11T07:59:36.710Z,51.323425
2023-02-11T08:00:36.717Z,51.323414
2023-02-11T08:01:36.673Z,51.323414
2023-02-11T08:02:36.673Z,51.323433
2023-02-11T08:03:36.681Z,51.323429
2023-02-11T08:04:36.617Z,51.323391
2023-02-11T08:05:36.593Z,51.323414
2023-02-11T08:06:36.599Z,51.323391
2023-02-11T08:07:36.558Z,51.323421
2023-02-11T08:08:36.567Z,51.323437
2023-02-11T08:09:36.534Z,51.323425
2023-02-11T08:10:36.509Z,51.323433
2023-02-11T08:11:36.481Z,51.323437
2023-02-11T08:12:36.466Z,51.323421
2023-02-11T08:13:36.482Z,51.323414
2023-02-11T08:14:36.434Z,51.323437
2023-02-11T08:15:36.420Z,51.323414
2023-02-11T08:16:36.446Z,51.323418
2023-02-11T08:17:36.378Z,51.323433
2023-02-11T08:18:36.405Z,51.323429
2023-02-11T08:19:36.338Z,51.323421
2023-02-11T08:20:36.316Z,51.323441
2023-02-11T08:21:36.301Z,51.323418
2023-02-11T08:22:36.294Z,51.323406
2023-02-11T08:23:36.283Z,51.323414
2023-02-11T08:24:36.233Z,51.323414
2023-02-11T08:25:36.219Z,51.323414
2023-02-11T08:26:36.202Z,51.323418
2023-02-11T08:27:36.191Z,51.323421
2023-02-11T08:28:36.743Z,51.323425
2023-02-11T08:29:36.155Z,51.323421
2023-02-11T08:30:36.133Z,51.323410
2023-02-11T08:31:36.237Z,51.323402
2023-02-11T08:32:36.092Z,51.323395
2023-02-11T08:33:36.103Z,51.323410
2023-02-11T08:34:36.057Z,51.323406
2023-02-11T08:35:36.030Z,51.323399
2023-02-11T08:36:36.017Z,51.323425
2023-02-11T08:37:35.999Z,51.323425
2023-02-11T08:38:36.004Z,51.323406
2023-02-11T08:39:35.959Z,51.323433
2023-02-11T08:40:35.967Z,51.323414
2023-02-11T08:41:35.922Z,51.323425
2023-02-11T08:42:35.908Z,51.323414
2023-02-11T08:43:35.918Z,51.323406
2023-02-11T08:44:35.867Z,51.323437
2023-02-11T08:45:35.938Z,51.323406
2023-02-11T08:46:35.835Z,51.323410
2023-02-11T08:47:35.805Z,51.323429
2023-02-11T08:48:35.820Z,51.323448
2023-02-11T08:49:35.768Z,51.323471
2023-02-11T08:50:35.781Z,51.323433
2023-02-11T08:51:35.745Z,51.323418
2023-02-11T08:52:35.713Z,51.323429
2023-02-11T08:53:35.732Z,51.323414
2023-02-11T08:54:35.677Z,51.323399
2023-02-11T08:55:35.658Z,51.323429
2023-02-11T08:56:35.643Z,51.323410
2023-02-11T08:57:35.627Z,51.323414
2023-02-11T08:58:35.602Z,51.323414
2023-02-11T08:59:35.619Z,51.323414
2023-02-11T09:00:35.566Z,51.323414
2023-02-11T09:01:35.626Z,51.323406
2023-02-11T09:02:35.574Z,51.323425
2023-02-11T09:03:35.526Z,51.323418
2023-02-11T09:04:35.525Z,51.323418
2023-02-11T09:05:35.475Z,51.323391
2023-02-11T09:06:35.458Z,51.323418
2023-02-11T09:07:35.440Z,51.323471
2023-02-11T09:08:35.422Z,51.323448
2023-02-11T09:09:35.433Z,51.323425
2023-02-11T09:10:35.386Z,51.323471
2023-02-11T09:11:35.371Z,51.323444
2023-02-11T09:12:35.345Z,51.323425
2023-02-11T09:13:35.330Z,51.323429
2023-02-11T09:14:35.339Z,51.323433
2023-02-11T09:15:35.292Z,51.323460
2023-02-11T09:16:35.341Z,51.323444
2023-02-11T09:17:35.249Z,51.323444
2023-02-11T09:18:35.231Z,51.323452
2023-02-11T09:19:35.243Z,51.323425
2023-02-11T09:20:35.210Z,51.323433
2023-02-11T09:21:35.176Z,51.323437
2023-02-11T09:22:35.159Z,51.323414
2023-02-11T09:23:35.177Z,51.323410
2023-02-11T09:24:35.148Z,51.323421
2023-02-11T09:25:35.102Z,51.323399
2023-02-11T09:26:35.081Z,51.323444
2023-02-11T09:27:35.067Z,51.323429
2023-02-11T09:28:35.106Z,51.323418
2023-02-11T09:29:35.077Z,51.323429
2023-02-11T09:30:35.104Z,51.323421
2023-02-11T09:31:35.286Z,51.323410
2023-02-11T09:32:34.983Z,51.323433
2023-02-11T09:33:34.955Z,51.323437
2023-02-11T09:34:34.971Z,51.323437
2023-02-11T09:35:34.926Z,51.323421
2023-02-11T09:36:34.923Z,51.323410
2023-02-11T09:37:37.257Z,51.323410
2023-02-11T09:38:35.879Z,51.323399
2023-02-11T09:39:35.882Z,51.323433
2023-02-11T09:40:34.853Z,51.323429
2023-02-11T09:41:34.821Z,51.323441
2023-02-11T09:42:34.799Z,51.323433
2023-02-11T09:43:34.780Z,51.323433
2023-02-11T09:44:34.817Z,51.323429
2023-02-11T09:45:34.753Z,51.323421
2023-02-11T09:46:34.764Z,51.323402
2023-02-11T09:47:34.721Z,51.323402
2023-02-11T09:48:34.697Z,51.323410
2023-02-11T09:49:34.706Z,51.323406
2023-02-11T09:50:34.671Z,51.323399
2023-02-11T09:51:34.643Z,51.323425
2023-02-11T09:52:34.636Z,51.323429
2023-02-11T09:53:34.605Z,51.323414
2023-02-11T09:54:34.618Z,51.323414
2023-02-11T09:55:34.577Z,51.323421
2023-02-11T09:56:34.583Z,51.323421
2023-02-11T09:57:34.533Z,51.323421
2023-02-11T09:58:34.523Z,51.323406
2023-02-11T09:59:34.527Z,51.323395
2023-02-11T10:00:34.497Z,51.323414
2023-02-11T10:01:34.495Z,51.323395
2023-02-11T10:02:34.442Z,51.323410
2023-02-11T10:03:34.475Z,51.323414
2023-02-11T10:04:34.489Z,51.323414
2023-02-11T10:05:34.401Z,51.323410
2023-02-11T10:06:34.372Z,51.323410
2023-02-11T10:07:34.360Z,51.323410
2023-02-11T10:08:34.338Z,51.323418
2023-02-11T10:09:34.347Z,51.323441
2023-02-11T10:10:34.305Z,51.323418
2023-02-11T10:11:34.285Z,51.323410
2023-02-11T10:12:34.315Z,51.323402
2023-02-11T10:13:34.251Z,51.323395
2023-02-11T10:14:34.265Z,51.323383
2023-02-11T10:15:34.243Z,51.323421
2023-02-11T10:16:34.199Z,51.323414
2023-02-11T10:17:34.181Z,51.323425
2023-02-11T10:18:34.165Z,51.323406
2023-02-11T10:19:34.169Z,51.323425
2023-02-11T10:20:34.124Z,51.323402
2023-02-11T10:21:35.111Z,51.323418
2023-02-11T10:22:34.093Z,51.323402
2023-02-11T10:23:34.084Z,51.323402
2023-02-11T10:24:34.085Z,51.323414
2023-02-11T10:25:34.040Z,51.323421
2023-02-11T10:26:34.038Z,51.323452
2023-02-11T10:27:34.015Z,51.323429
2023-02-11T10:28:34.096Z,51.323421
2023-02-11T10:29:34.010Z,51.323410
2023-02-11T10:30:33.984Z,51.323395
2023-02-11T10:31:34.024Z,51.323380
2023-02-11T10:32:33.926Z,51.323372
2023-02-11T10:33:33.915Z,51.323402
2023-02-11T10:34:33.914Z,51.323402
2023-02-11T10:35:33.873Z,51.323391
2023-02-11T10:36:33.854Z,51.323387
2023-02-11T10:37:33.840Z,51.323391
2023-02-11T10:38:33.835Z,51.323418
2023-02-11T10:39:33.825Z,51.323418
2023-02-11T10:40:33.787Z,51.323395
2023-02-11T10:41:33.782Z,51.323391
2023-02-11T10:42:33.734Z,51.323391
2023-02-11T10:43:33.716Z,51.323383
2023-02-11T10:44:33.725Z,51.323410
2023-02-11T10:45:33.677Z,51.323433
2023-02-11T10:46:33.732Z,51.323452
2023-02-11T10:47:33.649Z,51.323437
2023-02-11T10:48:33.623Z,51.323418
2023-02-11T10:49:33.633Z,51.323421
2023-02-11T10:50:33.588Z,51.323421
2023-02-11T10:51:33.581Z,51.323429
2023-02-11T10:52:33.550Z,51.323429
2023-02-11T10:53:33.538Z,51.323418
2023-02-11T10:54:33.546Z,51.323418
2023-02-11T10:55:33.496Z,51.323410
2023-02-11T10:56:33.489Z,51.323383
2023-02-11T10:57:33.452Z,51.323372
2023-02-11T10:58:34.446Z,51.323406
2023-02-11T10:59:33.461Z,51.323425
2023-02-11T11:00:33.411Z,51.323429
2023-02-11T11:01:33.460Z,51.323448
2023-02-11T11:02:33.392Z,51.323456
2023-02-11T11:03:33.358Z,51.323444
2023-02-11T11:04:33.409Z,51.323410
2023-02-11T11:05:33.325Z,51.323425
2023-02-11T11:06:33.312Z,51.323490
2023-02-11T11:07:33.293Z,51.323475
2023-02-11T11:08:33.270Z,51.323448
2023-02-11T11:09:33.287Z,51.323421
2023-02-11T11:10:33.234Z,51.323463
2023-02-11T11:11:33.214Z,51.323410
2023-02-11T11:12:33.232Z,51.323433
2023-02-11T11:13:33.179Z,51.323479
2023-02-11T11:14:33.198Z,51.323429
2023-02-11T11:15:33.147Z,51.323418
2023-02-11T11:16:33.132Z,51.323433
2023-02-11T11:17:33.113Z,51.323414
2023-02-11T11:18:33.094Z,51.323456
2023-02-11T11:19:33.114Z,51.323421
2023-02-11T11:20:33.061Z,51.323444
2023-02-11T11:21:33.052Z,51.323452
2023-02-11T11:22:33.051Z,51.323460
2023-02-11T11:23:33.007Z,51.323456
2023-02-11T11:24:32.983Z,51.323471